Snow/Ice From: 16-12-2017 16:00 Until: 17-12-2017 16:00 warning for: Snow/Ice Level: Yellow info button

Although rather usual in this region, locally or potentially dangerous phenomena are expected. (such as local winds, summer thunderstorms, rising streams or high waves) Be aware and pay attention to the latest weather updates, especially if you carry out activities exposed to weather or close to a stream or shoreline. 


Meteo18 Weather Cam more information Meteo18 Weather Cam


Thunder radar more information blitzortung!


warning for Snow/Ice more information rain snow radar


Visit our other weather sites:

Template documentation
and downloads

And another site



Weather Underground History page Text

Daily Summary for February 28, 2017 Units:  Metric    English   Both
« Previous Day
Next Day »
Daily Weekly Monthly Yearly Custom
  High: Low: Average:
Temperature: 7.3 °C 4.2 °C 5.4 °C
Dew Point: 4.3 °C 1.8 °C 3.1 °C
Humidity: 91 % 79 % 85 %
Wind Speed: 43.4 km/h 3.2 km/h 16.7 km/h
Wind Gust: 66.0 km/h - -
Wind:- - SW
Pressure: 1007.3 hPa 995.1 hPa -
Precipitation: 2.3 mm    
Historical Graphs
 
 
Tabular Data for February 28, 2017
Time Temperature Dew Point Pressure Wind Wind Speed Wind Gust Humidity Rainfall Rate (Hourly)
00:02 5.8 °C 3.1 °C 1000.9 hPa SSW 19.3 km/h 37.0 km/h 83 % 0.0 mm
00:12 5.9 °C 2.9 °C 1000.9 hPa SW 19.3 km/h 37.0 km/h 81 % 0.0 mm
00:17 5.8 °C 2.8 °C 1001.2 hPa SW 30.6 km/h 35.4 km/h 81 % 0.0 mm
00:22 5.8 °C 2.8 °C 1000.9 hPa South 16.1 km/h 35.4 km/h 81 % 0.0 mm
00:27 5.7 °C 2.7 °C 1000.9 hPa South 20.9 km/h 38.6 km/h 81 % 0.0 mm
00:32 5.6 °C 2.6 °C 1000.9 hPa West 37.0 km/h 38.6 km/h 81 % 0.0 mm
00:37 5.6 °C 2.8 °C 1000.9 hPa SW 19.3 km/h 41.8 km/h 82 % 0.0 mm
00:42 5.4 °C 2.6 °C 1000.9 hPa SW 20.9 km/h 41.8 km/h 82 % 0.0 mm
00:47 5.4 °C 2.6 °C 1000.6 hPa SW 9.7 km/h 38.6 km/h 82 % 0.0 mm
00:52 5.3 °C 2.6 °C 1000.6 hPa WSW 20.9 km/h 38.6 km/h 83 % 0.0 mm
00:57 5.3 °C 2.6 °C 1000.9 hPa SW 27.4 km/h 37.0 km/h 83 % 0.0 mm
01:02 5.3 °C 2.5 °C 1000.9 hPa SW 14.5 km/h 35.4 km/h 82 % 0.0 mm
01:12 5.3 °C 2.6 °C 1000.9 hPa SW 16.1 km/h 32.2 km/h 83 % 0.0 mm
01:17 5.3 °C 2.6 °C 1001.2 hPa SW 8.0 km/h 30.6 km/h 83 % 0.0 mm
01:22 5.2 °C 2.5 °C 1001.2 hPa WSW 11.3 km/h 38.6 km/h 83 % 0.0 mm
01:32 5.2 °C 2.7 °C 1001.2 hPa SW 12.9 km/h 38.6 km/h 84 % 0.0 mm
01:37 5.1 °C 2.8 °C 1001.2 hPa SW 17.7 km/h 27.4 km/h 85 % 0.0 mm
01:42 5.1 °C 3.0 °C 1000.9 hPa SW 11.3 km/h 27.4 km/h 86 % 0.0 mm
01:47 5.1 °C 3.0 °C 1000.9 hPa SW 19.3 km/h 29.0 km/h 86 % 0.0 mm
01:52 5.0 °C 3.0 °C 1001.2 hPa WSW 14.5 km/h 29.0 km/h 87 % 0.0 mm
01:57 5.0 °C 3.0 °C 1001.2 hPa SW 24.1 km/h 25.7 km/h 87 % 0.0 mm
02:02 5.1 °C 3.3 °C 1001.2 hPa SSW 12.9 km/h 25.7 km/h 88 % 0.0 mm
02:07 5.1 °C 3.3 °C 1001.2 hPa SW 12.9 km/h 27.4 km/h 88 % 0.0 mm
02:12 5.0 °C 3.2 °C 1001.2 hPa West 17.7 km/h 27.4 km/h 88 % 0.0 mm
02:17 5.1 °C 3.3 °C 1001.2 hPa SSW 9.7 km/h 25.7 km/h 88 % 0.0 mm
02:22 5.1 °C 3.3 °C 1001.2 hPa SW 22.5 km/h 24.1 km/h 88 % 0.0 mm
02:27 5.1 °C 3.3 °C 1001.2 hPa SW 24.1 km/h 24.1 km/h 88 % 0.0 mm
02:32 5.0 °C 3.2 °C 1001.2 hPa SW 8.0 km/h 24.1 km/h 88 % 0.0 mm
02:37 4.9 °C 3.1 °C 1000.9 hPa WSW 14.5 km/h 24.1 km/h 88 % 0.0 mm
02:42 4.9 °C 3.1 °C 1000.9 hPa WSW 12.9 km/h 24.1 km/h 88 % 0.0 mm
02:47 4.9 °C 3.1 °C 1000.9 hPa SW 14.5 km/h 24.1 km/h 88 % 0.0 mm
02:52 4.8 °C 3.0 °C 1000.9 hPa South 8.0 km/h 24.1 km/h 88 % 0.0 mm
02:57 4.5 °C 2.8 °C 1000.9 hPa SW 6.4 km/h 19.3 km/h 89 % 0.0 mm
03:02 4.4 °C 2.9 °C 1000.9 hPa SW 8.0 km/h 19.3 km/h 90 % 0.0 mm
03:12 4.5 °C 3.2 °C 1000.9 hPa SSW 8.0 km/h 17.7 km/h 91 % 0.0 mm
03:17 4.6 °C 3.3 °C 1000.9 hPa SSW 17.7 km/h 17.7 km/h 91 % 0.0 mm
03:22 4.9 °C 3.2 °C 1000.6 hPa SW 16.1 km/h 19.3 km/h 89 % 0.0 mm
03:27 5.1 °C 3.3 °C 1000.6 hPa WSW 20.9 km/h 25.7 km/h 88 % 0.0 mm
03:37 5.3 °C 3.3 °C 1000.6 hPa SW 12.9 km/h 30.6 km/h 87 % 0.0 mm
03:42 5.3 °C 3.1 °C 1000.6 hPa West 14.5 km/h 30.6 km/h 86 % 0.0 mm
03:52 5.3 °C 3.1 °C 1000.6 hPa SW 14.5 km/h 32.2 km/h 86 % 0.0 mm
03:57 5.2 °C 3.1 °C 1000.6 hPa SW 17.7 km/h 32.2 km/h 86 % 0.0 mm
04:02 5.1 °C 3.0 °C 1000.6 hPa SW 16.1 km/h 32.2 km/h 86 % 0.0 mm
04:12 4.8 °C 2.8 °C 1000.6 hPa SW 14.5 km/h 27.4 km/h 87 % 0.0 mm
04:17 4.9 °C 2.9 °C 1000.6 hPa SW 12.9 km/h 27.4 km/h 87 % 0.0 mm
04:22 4.9 °C 2.8 °C 1000.6 hPa WSW 14.5 km/h 24.1 km/h 86 % 0.0 mm
04:32 5.0 °C 2.9 °C 1000.6 hPa SW 16.1 km/h 24.1 km/h 86 % 0.0 mm
04:42 4.9 °C 2.9 °C 1000.6 hPa SW 12.9 km/h 22.5 km/h 87 % 0.0 mm
04:47 4.9 °C 3.1 °C 1000.6 hPa SSW 12.9 km/h 24.1 km/h 88 % 0.0 mm
04:52 4.9 °C 3.1 °C 1000.6 hPa SW 17.7 km/h 24.1 km/h 88 % 0.0 mm
04:57 4.9 °C 3.1 °C 1000.2 hPa SW 9.7 km/h 24.1 km/h 88 % 0.0 mm
05:02 5.1 °C 3.3 °C 1000.2 hPa SW 17.7 km/h 24.1 km/h 88 % 0.0 mm
05:07 5.0 °C 3.2 °C 1000.2 hPa SSW 8.0 km/h 24.1 km/h 88 % 0.0 mm
05:12 4.8 °C 3.1 °C 1000.2 hPa SSW 9.7 km/h 24.1 km/h 89 % 0.0 mm
05:17 4.7 °C 3.0 °C 999.9 hPa SW 16.1 km/h 24.1 km/h 89 % 0.0 mm
05:22 4.5 °C 3.0 °C 1000.2 hPa SW 14.5 km/h 19.3 km/h 90 % 0.0 mm
05:27 4.4 °C 2.9 °C 999.9 hPa SW 17.7 km/h 19.3 km/h 90 % 0.0 mm
05:32 4.4 °C 2.9 °C 999.9 hPa SW 11.3 km/h 20.9 km/h 90 % 0.0 mm
05:42 4.5 °C 3.0 °C 999.9 hPa SSW 14.5 km/h 24.1 km/h 90 % 0.0 mm
05:47 4.6 °C 3.1 °C 999.9 hPa SSW 16.1 km/h 24.1 km/h 90 % 0.0 mm
05:52 4.7 °C 3.2 °C 999.9 hPa SW 16.1 km/h 25.7 km/h 90 % 0.0 mm
06:02 4.5 °C 3.0 °C 999.5 hPa SW 17.7 km/h 25.7 km/h 90 % 0.0 mm
06:07 4.4 °C 2.9 °C 999.5 hPa SW 12.9 km/h 25.7 km/h 90 % 0.0 mm
06:12 4.4 °C 3.1 °C 999.2 hPa SW 22.5 km/h 25.7 km/h 91 % 0.0 mm
06:17 4.4 °C 3.1 °C 998.9 hPa SW 16.1 km/h 25.7 km/h 91 % 0.0 mm
06:22 4.4 °C 3.1 °C 999.2 hPa SSW 8.0 km/h 24.1 km/h 91 % 0.0 mm
06:32 4.3 °C 3.0 °C 999.2 hPa SSW 6.4 km/h 24.1 km/h 91 % 0.0 mm
06:37 4.3 °C 3.0 °C 999.2 hPa SSW 9.7 km/h 20.9 km/h 91 % 0.0 mm
06:42 4.3 °C 3.0 °C 999.2 hPa SW 16.1 km/h 20.9 km/h 91 % 0.0 mm
06:47 4.4 °C 3.1 °C 998.9 hPa SW 11.3 km/h 20.9 km/h 91 % 0.0 mm
06:52 4.3 °C 3.0 °C 998.9 hPa SSW 12.9 km/h 19.3 km/h 91 % 0.0 mm
07:02 4.4 °C 2.9 °C 998.5 hPa SSW 14.5 km/h 19.3 km/h 90 % 0.0 mm
07:07 4.3 °C 2.8 °C 998.5 hPa SSW 9.7 km/h 19.3 km/h 90 % 0.0 mm
07:12 4.3 °C 2.8 °C 998.5 hPa SSE 8.0 km/h 20.9 km/h 90 % 0.0 mm
07:17 4.2 °C 2.7 °C 998.2 hPa South 9.7 km/h 20.9 km/h 90 % 0.0 mm
07:22 4.2 °C 2.7 °C 998.2 hPa SSW 11.3 km/h 17.7 km/h 90 % 0.0 mm
07:32 4.2 °C 2.7 °C 998.2 hPa SSW 11.3 km/h 22.5 km/h 90 % 0.0 mm
07:42 4.3 °C 2.6 °C 997.9 hPa SSW 14.5 km/h 22.5 km/h 89 % 0.0 mm
07:47 4.4 °C 2.7 °C 997.9 hPa SSW 19.3 km/h 22.5 km/h 89 % 0.0 mm
07:52 4.6 °C 2.9 °C 997.9 hPa SSW 12.9 km/h 24.1 km/h 89 % 0.0 mm
07:57 4.7 °C 2.9 °C 997.5 hPa SW 9.7 km/h 24.1 km/h 88 % 0.0 mm
08:02 4.8 °C 3.0 °C 997.5 hPa SSW 12.9 km/h 24.1 km/h 88 % 0.0 mm
08:07 4.9 °C 2.9 °C 997.5 hPa South 12.9 km/h 24.1 km/h 87 % 0.0 mm
08:12 4.9 °C 2.9 °C 997.2 hPa South 11.3 km/h 24.1 km/h 87 % 0.0 mm
08:22 5.1 °C 3.0 °C 997.2 hPa SSW 14.5 km/h 22.5 km/h 86 % 0.0 mm
08:32 5.2 °C 3.1 °C 996.8 hPa SSW 12.9 km/h 32.2 km/h 86 % 0.0 mm
08:37 5.2 °C 3.1 °C 996.8 hPa SSE 12.9 km/h 32.2 km/h 86 % 0.0 mm
08:42 5.2 °C 3.2 °C 996.8 hPa SSE 16.1 km/h 27.4 km/h 87 % 0.0 mm
08:47 5.2 °C 3.2 °C 996.5 hPa SSW 3.2 km/h 27.4 km/h 87 % 0.0 mm
08:52 5.1 °C 3.4 °C 996.2 hPa SSE 3.2 km/h 24.1 km/h 89 % 0.3 mm
09:02 4.8 °C 3.3 °C 996.2 hPa SSE 4.8 km/h 17.7 km/h 90 % 0.5 mm
09:12 4.8 °C 3.5 °C 995.5 hPa SE 8.0 km/h 17.7 km/h 91 % 0.5 mm
09:22 5.1 °C 3.6 °C 995.5 hPa SSE 8.0 km/h 22.5 km/h 90 % 0.5 mm
09:27 5.2 °C 3.7 °C 995.5 hPa SSE 9.7 km/h 22.5 km/h 90 % 0.5 mm
09:32 5.2 °C 3.7 °C 995.5 hPa SSE 8.0 km/h 29.0 km/h 90 % 0.5 mm
09:37 5.3 °C 3.8 °C 995.5 hPa SSW 16.1 km/h 29.0 km/h 90 % 0.5 mm
09:42 5.3 °C 3.6 °C 995.5 hPa SSW 24.1 km/h 27.4 km/h 89 % 0.5 mm
09:47 5.4 °C 3.7 °C 995.5 hPa South 20.9 km/h 27.4 km/h 89 % 0.5 mm
09:52 5.4 °C 3.7 °C 995.1 hPa SW 27.4 km/h 27.4 km/h 89 % 0.5 mm
09:57 5.4 °C 3.7 °C 995.1 hPa South 14.5 km/h 27.4 km/h 89 % 0.5 mm
10:02 5.5 °C 3.8 °C 995.5 hPa SSW 24.1 km/h 37.0 km/h 89 % 0.5 mm
10:12 5.6 °C 4.1 °C 995.5 hPa SW 24.1 km/h 37.0 km/h 90 % 0.5 mm
10:17 5.6 °C 4.2 °C 995.5 hPa SSW 35.4 km/h 37.0 km/h 91 % 0.5 mm
10:22 5.6 °C 4.2 °C 995.8 hPa SW 24.1 km/h 46.7 km/h 91 % 0.5 mm
10:32 5.6 °C 3.9 °C 995.5 hPa SW 16.1 km/h 48.3 km/h 89 % 0.8 mm
10:42 5.5 °C 3.8 °C 995.8 hPa WSW 8.0 km/h 48.3 km/h 89 % 0.8 mm
10:52 5.3 °C 3.6 °C 995.5 hPa SSW 22.5 km/h 45.1 km/h 89 % 0.8 mm
10:57 5.4 °C 3.7 °C 995.5 hPa SW 22.5 km/h 45.1 km/h 89 % 0.8 mm
11:02 5.5 °C 3.8 °C 995.1 hPa WSW 17.7 km/h 37.0 km/h 89 % 0.8 mm
11:12 5.6 °C 3.9 °C 995.1 hPa SW 24.1 km/h 41.8 km/h 89 % 0.5 mm
11:17 5.7 °C 4.0 °C 995.1 hPa SW 30.6 km/h 41.8 km/h 89 % 0.5 mm
11:22 5.9 °C 4.1 °C 995.1 hPa SW 22.5 km/h 37.0 km/h 88 % 0.5 mm
11:32 6.0 °C 3.8 °C 995.5 hPa SW 20.9 km/h 46.7 km/h 86 % 0.3 mm
11:37 6.0 °C 3.8 °C 995.5 hPa SW 8.0 km/h 46.7 km/h 86 % 0.3 mm
11:42 6.0 °C 3.7 °C 995.5 hPa WSW 22.5 km/h 43.4 km/h 85 % 0.3 mm
11:47 5.9 °C 3.6 °C 995.5 hPa SW 27.4 km/h 43.4 km/h 85 % 0.3 mm
11:52 5.9 °C 3.7 °C 995.5 hPa SW 22.5 km/h 45.1 km/h 86 % 0.0 mm
11:57 6.0 °C 3.8 °C 995.5 hPa WSW 8.0 km/h 45.1 km/h 86 % 0.0 mm
12:02 5.9 °C 3.6 °C 995.8 hPa West 11.3 km/h 45.1 km/h 85 % 0.0 mm
12:12 5.6 °C 3.4 °C 996.2 hPa WSW 30.6 km/h 49.9 km/h 86 % 0.0 mm
12:17 5.4 °C 3.2 °C 995.8 hPa WSW 30.6 km/h 49.9 km/h 86 % 0.0 mm
12:22 5.4 °C 3.4 °C 996.2 hPa WSW 20.9 km/h 43.4 km/h 87 % 0.0 mm
12:32 5.4 °C 3.4 °C 996.2 hPa SW 19.3 km/h 43.4 km/h 87 % 0.0 mm
12:42 5.4 °C 3.2 °C 996.2 hPa SW 30.6 km/h 40.2 km/h 86 % 0.3 mm
12:47 5.2 °C 3.2 °C 996.2 hPa WSW 35.4 km/h 40.2 km/h 87 % 0.3 mm
12:52 5.2 °C 3.4 °C 996.2 hPa WSW 25.7 km/h 45.1 km/h 88 % 0.3 mm
13:02 5.3 °C 3.6 °C 996.2 hPa SW 24.1 km/h 45.1 km/h 89 % 0.3 mm
13:12 5.8 °C 3.8 °C 996.2 hPa SW 17.7 km/h 35.4 km/h 87 % 0.3 mm
13:22 6.3 °C 4.3 °C 996.2 hPa SSW 12.9 km/h 38.6 km/h 87 % 0.3 mm
13:32 6.4 °C 4.1 °C 995.8 hPa SW 27.4 km/h 38.6 km/h 85 % 0.0 mm
13:42 6.5 °C 3.8 °C 996.2 hPa WSW 22.5 km/h 45.1 km/h 83 % 0.0 mm
13:52 6.6 °C 3.9 °C 996.2 hPa SW 30.6 km/h 43.4 km/h 83 % 0.0 mm
14:02 6.7 °C 4.0 °C 996.2 hPa SW 25.7 km/h 48.3 km/h 83 % 0.0 mm
14:12 7.0 °C 4.0 °C 995.8 hPa SW 27.4 km/h 48.3 km/h 81 % 0.0 mm
14:17 7.2 °C 4.0 °C 995.8 hPa SW 19.3 km/h 38.6 km/h 80 % 0.0 mm
14:22 7.2 °C 4.0 °C 995.8 hPa SW 22.5 km/h 54.7 km/h 80 % 0.0 mm
14:32 7.1 °C 4.1 °C 995.8 hPa WSW 16.1 km/h 54.7 km/h 81 % 0.0 mm
14:37 7.0 °C 4.1 °C 995.8 hPa WSW 43.4 km/h 51.5 km/h 82 % 0.0 mm
14:42 7.0 °C 4.0 °C 995.8 hPa WSW 32.2 km/h 51.5 km/h 81 % 0.0 mm
14:47 7.3 °C 4.3 °C 995.8 hPa SW 16.1 km/h 53.1 km/h 81 % 0.0 mm
14:52 7.3 °C 3.9 °C 995.8 hPa WSW 17.7 km/h 53.1 km/h 79 % 0.0 mm
15:02 6.6 °C 4.1 °C 996.5 hPa WSW 37.0 km/h 66.0 km/h 84 % 0.3 mm
15:12 6.0 °C 3.5 °C 997.2 hPa West 27.4 km/h 66.0 km/h 84 % 0.3 mm
15:17 5.8 °C 3.3 °C 997.5 hPa WNW 40.2 km/h 66.0 km/h 84 % 0.3 mm
15:22 5.7 °C 3.2 °C 997.9 hPa WNW 35.4 km/h 51.5 km/h 84 % 0.3 mm
15:32 5.6 °C 3.3 °C 998.2 hPa West 25.7 km/h 51.5 km/h 85 % 0.3 mm
15:42 5.9 °C 3.2 °C 998.2 hPa WNW 30.6 km/h 48.3 km/h 83 % 0.3 mm
15:52 6.1 °C 3.3 °C 998.5 hPa WNW 37.0 km/h 48.3 km/h 82 % 0.3 mm
15:57 6.3 °C 3.8 °C 998.9 hPa WNW 30.6 km/h 51.5 km/h 84 % 0.0 mm
16:02 6.4 °C 3.7 °C 999.2 hPa WNW 16.1 km/h 51.5 km/h 83 % 0.0 mm
16:12 6.5 °C 3.5 °C 999.5 hPa West 11.3 km/h 51.5 km/h 81 % 0.0 mm
16:17 6.6 °C 3.4 °C 999.5 hPa West 11.3 km/h 49.9 km/h 80 % 0.0 mm
16:22 6.4 °C 3.2 °C 999.5 hPa WNW 24.1 km/h 49.9 km/h 80 % 0.0 mm
16:32 6.5 °C 3.1 °C 999.9 hPa WNW 14.5 km/h 38.6 km/h 79 % 0.0 mm
16:42 6.3 °C 3.1 °C 1000.2 hPa WSW 16.1 km/h 48.3 km/h 80 % 0.0 mm
16:47 6.3 °C 3.1 °C 1000.2 hPa West 29.0 km/h 48.3 km/h 80 % 0.0 mm
16:52 6.3 °C 3.1 °C 1000.6 hPa West 30.6 km/h 48.3 km/h 80 % 0.0 mm
16:57 6.2 °C 3.2 °C 1000.6 hPa West 24.1 km/h 43.4 km/h 81 % 0.0 mm
17:02 6.1 °C 3.4 °C 1000.9 hPa West 29.0 km/h 43.4 km/h 83 % 0.0 mm
17:12 6.0 °C 3.2 °C 1001.2 hPa NW 32.2 km/h 37.0 km/h 82 % 0.0 mm
17:17 6.2 °C 3.4 °C 1001.2 hPa West 27.4 km/h 49.9 km/h 82 % 0.0 mm
17:22 6.3 °C 3.3 °C 1001.6 hPa WNW 20.9 km/h 49.9 km/h 81 % 0.0 mm
17:32 6.3 °C 3.6 °C 1001.9 hPa West 14.5 km/h 35.4 km/h 83 % 0.0 mm
17:42 6.1 °C 3.6 °C 1002.3 hPa West 14.5 km/h 27.4 km/h 84 % 0.0 mm
17:47 6.0 °C 3.5 °C 1002.6 hPa West 11.3 km/h 24.1 km/h 84 % 0.0 mm
17:52 6.1 °C 3.6 °C 1002.6 hPa WNW 14.5 km/h 24.1 km/h 84 % 0.0 mm
18:02 6.3 °C 4.0 °C 1002.9 hPa WNW 4.8 km/h 27.4 km/h 85 % 0.0 mm
18:12 6.3 °C 3.6 °C 1003.3 hPa WSW 6.4 km/h 27.4 km/h 83 % 0.0 mm
18:17 6.3 °C 3.6 °C 1003.6 hPa West 12.9 km/h 17.7 km/h 83 % 0.0 mm
18:22 6.1 °C 3.6 °C 1003.6 hPa WSW 6.4 km/h 17.7 km/h 84 % 0.0 mm
18:32 5.9 °C 3.4 °C 1003.6 hPa WSW 11.3 km/h 17.7 km/h 84 % 0.0 mm
18:42 5.7 °C 3.4 °C 1003.9 hPa WSW 4.8 km/h 20.9 km/h 85 % 0.0 mm
18:47 5.7 °C 3.4 °C 1004.3 hPa WSW 8.0 km/h 16.1 km/h 85 % 0.0 mm
18:57 5.6 °C 3.3 °C 1004.6 hPa SW 3.2 km/h 14.5 km/h 85 % 0.0 mm
19:02 5.6 °C 2.9 °C 1004.6 hPa SW 4.8 km/h 14.5 km/h 83 % 0.0 mm
19:12 5.7 °C 2.7 °C 1005.0 hPa SSW 6.4 km/h 19.3 km/h 81 % 0.0 mm
19:17 5.7 °C 2.7 °C 1005.0 hPa WSW 3.2 km/h 19.3 km/h 81 % 0.0 mm
19:22 5.6 °C 2.6 °C 1005.0 hPa West 19.3 km/h 19.3 km/h 81 % 0.0 mm
19:27 5.7 °C 2.5 °C 1005.3 hPa SW 8.0 km/h 17.7 km/h 80 % 0.0 mm
19:32 5.6 °C 2.4 °C 1005.3 hPa SW 9.7 km/h 19.3 km/h 80 % 0.0 mm
19:37 5.4 °C 2.4 °C 1005.3 hPa SW 9.7 km/h 19.3 km/h 81 % 0.0 mm
19:42 5.4 °C 2.2 °C 1005.6 hPa SW 11.3 km/h 19.3 km/h 80 % 0.0 mm
19:52 5.2 °C 2.2 °C 1005.6 hPa SW 8.0 km/h 17.7 km/h 81 % 0.0 mm
19:57 5.1 °C 2.1 °C 1005.6 hPa SW 9.7 km/h 17.7 km/h 81 % 0.0 mm
20:02 5.1 °C 2.1 °C 1005.6 hPa SW 11.3 km/h 17.7 km/h 81 % 0.0 mm
20:12 4.8 °C 2.2 °C 1005.6 hPa SW 9.7 km/h 17.7 km/h 83 % 0.0 mm
20:17 4.9 °C 2.1 °C 1005.6 hPa SSW 8.0 km/h 17.7 km/h 82 % 0.0 mm
20:22 5.1 °C 2.1 °C 1006.0 hPa SSW 4.8 km/h 17.7 km/h 81 % 0.0 mm
20:32 5.0 °C 2.0 °C 1006.0 hPa WSW 4.8 km/h 17.7 km/h 81 % 0.0 mm
20:42 4.3 °C 1.8 °C 1006.3 hPa SW 8.0 km/h 17.7 km/h 84 % 0.0 mm
20:47 4.2 °C 1.9 °C 1006.3 hPa SW 3.2 km/h 12.9 km/h 85 % 0.0 mm
20:52 4.5 °C 2.0 °C 1006.7 hPa SSW 6.4 km/h 12.9 km/h 84 % 0.0 mm
20:57 4.7 °C 2.1 °C 1006.7 hPa WSW 11.3 km/h 12.9 km/h 83 % 0.0 mm
21:02 4.8 °C 2.2 °C 1006.7 hPa SW 8.0 km/h 19.3 km/h 83 % 0.0 mm
21:12 5.0 °C 2.0 °C 1006.7 hPa South 11.3 km/h 19.3 km/h 81 % 0.0 mm
21:17 5.1 °C 1.9 °C 1006.7 hPa SW 19.3 km/h 24.1 km/h 80 % 0.0 mm
21:22 5.1 °C 1.9 °C 1006.7 hPa SW 11.3 km/h 24.1 km/h 80 % 0.0 mm
21:32 5.2 °C 2.2 °C 1007.0 hPa SW 12.9 km/h 24.1 km/h 81 % 0.0 mm
21:42 5.3 °C 2.3 °C 1007.0 hPa WSW 8.0 km/h 22.5 km/h 81 % 0.0 mm
21:52 5.4 °C 2.4 °C 1007.0 hPa SW 12.9 km/h 30.6 km/h 81 % 0.0 mm
21:57 5.4 °C 2.4 °C 1007.0 hPa WSW 19.3 km/h 30.6 km/h 81 % 0.0 mm
22:02 5.6 °C 2.4 °C 1007.0 hPa SW 24.1 km/h 27.4 km/h 80 % 0.0 mm
22:12 5.7 °C 2.3 °C 1007.0 hPa WSW 20.9 km/h 32.2 km/h 79 % 0.0 mm
22:17 5.7 °C 2.3 °C 1007.0 hPa SW 22.5 km/h 32.2 km/h 79 % 0.0 mm
22:22 5.7 °C 2.3 °C 1007.0 hPa SW 25.7 km/h 30.6 km/h 79 % 0.0 mm
22:32 5.8 °C 2.4 °C 1007.3 hPa West 29.0 km/h 30.6 km/h 79 % 0.0 mm
22:42 5.8 °C 2.4 °C 1007.3 hPa SW 17.7 km/h 32.2 km/h 79 % 0.0 mm
22:47 5.8 °C 2.4 °C 1007.3 hPa WSW 12.9 km/h 37.0 km/h 79 % 0.0 mm
22:52 5.8 °C 2.6 °C 1007.3 hPa SW 8.0 km/h 37.0 km/h 80 % 0.0 mm
23:02 5.7 °C 2.7 °C 1007.0 hPa West 12.9 km/h 33.8 km/h 81 % 0.0 mm
23:12 5.7 °C 2.9 °C 1007.0 hPa SW 16.1 km/h 33.8 km/h 82 % 0.0 mm
23:17 5.7 °C 2.9 °C 1007.0 hPa WSW 16.1 km/h 30.6 km/h 82 % 0.0 mm
23:22 5.7 °C 3.0 °C 1007.0 hPa WSW 11.3 km/h 27.4 km/h 83 % 0.0 mm
23:32 5.6 °C 3.3 °C 1007.3 hPa SW 9.7 km/h 27.4 km/h 85 % 0.0 mm
23:42 5.6 °C 3.6 °C 1007.3 hPa SSW 25.7 km/h 33.8 km/h 87 % 0.0 mm
23:47 5.6 °C 3.6 °C 1007.3 hPa SW 19.3 km/h 33.8 km/h 87 % 0.3 mm
23:52 5.7 °C 3.5 °C 1007.3 hPa SW 20.9 km/h 33.8 km/h 86 % 0.3 mm
23:57 5.8 °C 3.6 °C 1007.3 hPa SW 29.0 km/h 37.0 km/h 86 % 0.3 mm
Meteo18
Compliments of Weather Underground - 4 mb

Script developed by  Jim McMurry - jmcmurry@mwt.net Adapted for the template by  Wim van der Kuil - Leuven-Template.eu

You find our weather info also at:

European Weather Network

Weather Underground

Equipment we use:

Weather-station
Davis Vue

Weather-program
Meteohub

Weather-server
Raspberry PI 2 B+

Provider
1 and 1

Davis Vue

Meteohub

Raspberry PI 2 B+

1 and 1